Overview Statistics Trail Chart Weather Telemetry Raw packets
 

This is the latest recevied weather packets stored in our database for station/object S56OA-13. If no packets are shown the sender has not sent any weather packets the latest 10 day(s).

<< 15 16 17 18 19 >>
Time Temp. Humidity Pressure Rain* Wind** Luminosity Snow
1787897207 23.89° C 40% 890.4 hPa - - - -
1787895404 22.22° C 40% 885.2 hPa - - - -
1787893603 21.67° C 41% 882.6 hPa - - - -
1787891771 21.11° C 41% 880.2 hPa - - - -
1787889969 21.11° C 41% 879.1 hPa - - - -
1787888168 20.56° C 41% 879.6 hPa - - - -
1787886367 20.56° C 41% 880.2 hPa - - - -
1787884565 21.11° C 41% 880.6 hPa - - - -
1787882764 20.56° C 41% 880.3 hPa - - - -
1787880963 21.11° C 41% 880.6 hPa - - - -
1787879161 21.11° C 41% 880.9 hPa - - - -
1787873758 21.11° C 41% 880.8 hPa - - - -
1787871957 20.56° C 41% 879.6 hPa - - - -
1787870156 20° C 41% 878.7 hPa - - - -
1787868355 20.56° C 41% 878.9 hPa - - - -
1787866561 20° C 41% 877.5 hPa - - - -
1787864752 20.56° C 41% 878.8 hPa - - - -
1787862951 20.56° C 41% 878.8 hPa - - - -
1787861150 20° C 41% 878.4 hPa - - - -
1787859349 20° C 41% 877.7 hPa - - - -
1787857548 20° C 41% 877.4 hPa - - - -
1787855746 20.56° C 41% 878.3 hPa - - - -
1787853952 21.11° C 41% - - - - -
1787853945 21.11° C 41% 879.4 hPa - - - -
1787852261 21.67° C 42% 882.2 hPa - - - -

* Rain since midnight (hover to see other rain measurements)
** Current wind speed in m/s (hover to see current wind gust speed)